sensor_id;sensor_type;location;lat;lon;timestamp;pressure;altitude;pressure_sealevel;temperature;humidity
54236;BME280;40151;43.606;1.472;2023-02-12T00:02:06;100910.38;;;14.06;46.11
54236;BME280;40151;43.606;1.472;2023-02-12T00:04:32;100905.13;;;14.05;46.25
54236;BME280;40151;43.606;1.472;2023-02-12T00:06:58;100905.13;;;14.02;46.27
54236;BME280;40151;43.606;1.472;2023-02-12T00:09:23;100910.38;;;14.05;46.27
54236;BME280;40151;43.606;1.472;2023-02-12T00:11:48;100906.03;;;14.02;46.30
54236;BME280;40151;43.606;1.472;2023-02-12T00:14:14;100911.25;;;14.04;46.22
54236;BME280;40151;43.606;1.472;2023-02-12T00:16:39;100913.00;;;14.03;46.42
54236;BME280;40151;43.606;1.472;2023-02-12T00:19:05;100909.50;;;14.03;46.28
54236;BME280;40151;43.606;1.472;2023-02-12T00:21:30;100906.91;;;14.00;46.29
54236;BME280;40151;43.606;1.472;2023-02-12T00:23:56;100906.88;;;14.03;46.35
54236;BME280;40151;43.606;1.472;2023-02-12T00:26:22;100908.66;;;14.02;46.42
54236;BME280;40151;43.606;1.472;2023-02-12T00:28:48;100901.63;;;14.03;46.18
54236;BME280;40151;43.606;1.472;2023-02-12T00:31:19;100897.25;;;14.00;46.21
54236;BME280;40151;43.606;1.472;2023-02-12T00:33:45;100897.25;;;14.03;46.22
54236;BME280;40151;43.606;1.472;2023-02-12T00:36:16;100892.00;;;14.00;46.31
54236;BME280;40151;43.606;1.472;2023-02-12T00:38:42;100893.78;;;14.00;46.22
54236;BME280;40151;43.606;1.472;2023-02-12T00:41:08;100891.16;;;14.00;46.13
54236;BME280;40151;43.606;1.472;2023-02-12T00:43:33;100887.69;;;13.98;46.29
54236;BME280;40151;43.606;1.472;2023-02-12T00:45:59;100885.91;;;14.00;46.35
54236;BME280;40151;43.606;1.472;2023-02-12T00:48:25;100888.53;;;13.98;46.10
54236;BME280;40151;43.606;1.472;2023-02-12T00:50:50;100887.66;;;14.01;46.22
54236;BME280;40151;43.606;1.472;2023-02-12T00:53:16;100883.28;;;14.01;46.30
54236;BME280;40151;43.606;1.472;2023-02-12T00:55:41;100885.94;;;13.96;46.08
54236;BME280;40151;43.606;1.472;2023-02-12T00:58:07;100884.19;;;13.99;46.08
54236;BME280;40151;43.606;1.472;2023-02-12T01:00:32;100882.47;;;13.94;46.11
54236;BME280;40151;43.606;1.472;2023-02-12T01:02:58;100880.69;;;13.96;46.09
54236;BME280;40151;43.606;1.472;2023-02-12T01:05:23;100878.94;;;13.95;45.99
54236;BME280;40151;43.606;1.472;2023-02-12T01:07:50;100885.94;;;13.96;46.10
54236;BME280;40151;43.606;1.472;2023-02-12T01:10:16;100875.47;;;13.93;46.19
54236;BME280;40151;43.606;1.472;2023-02-12T01:12:41;100877.22;;;13.94;46.05
54236;BME280;40151;43.606;1.472;2023-02-12T01:15:07;100875.47;;;13.93;46.11
54236;BME280;40151;43.606;1.472;2023-02-12T01:17:35;100873.75;;;13.92;46.25
54236;BME280;40151;43.606;1.472;2023-02-12T01:20:00;100880.72;;;13.93;46.14
54236;BME280;40151;43.606;1.472;2023-02-12T01:22:26;100875.47;;;13.90;46.01
54236;BME280;40151;43.606;1.472;2023-02-12T01:24:51;100875.47;;;13.90;45.99
54236;BME280;40151;43.606;1.472;2023-02-12T01:27:17;100882.47;;;13.91;46.07
54236;BME280;40151;43.606;1.472;2023-02-12T01:29:42;100878.94;;;13.95;46.42
54236;BME280;40151;43.606;1.472;2023-02-12T01:32:10;100879.00;;;13.92;46.07
54236;BME280;40151;43.606;1.472;2023-02-12T01:34:36;100871.97;;;13.91;46.13
54236;BME280;40151;43.606;1.472;2023-02-12T01:37:02;100887.72;;;13.91;46.12
54236;BME280;40151;43.606;1.472;2023-02-12T01:39:28;100889.47;;;13.92;46.14
54236;BME280;40151;43.606;1.472;2023-02-12T01:41:53;100891.22;;;13.90;45.98
54236;BME280;40151;43.606;1.472;2023-02-12T01:46:47;100884.25;;;13.91;46.06
54236;BME280;40151;43.606;1.472;2023-02-12T01:49:19;100883.41;;;13.89;46.09
54236;BME280;40151;43.606;1.472;2023-02-12T01:51:48;100881.63;;;13.88;46.10
54236;BME280;40151;43.606;1.472;2023-02-12T01:54:16;100876.41;;;13.86;46.22
54236;BME280;40151;43.606;1.472;2023-02-12T01:56:43;100877.25;;;13.88;46.09
54236;BME280;40151;43.606;1.472;2023-02-12T01:59:08;100879.88;;;13.88;46.21
54236;BME280;40151;43.606;1.472;2023-02-12T02:01:35;100872.00;;;13.88;46.16
54236;BME280;40151;43.606;1.472;2023-02-12T02:04:08;100872.00;;;13.88;45.96
54236;BME280;40151;43.606;1.472;2023-02-12T02:06:41;100877.31;;;13.83;46.13
54236;BME280;40151;43.606;1.472;2023-02-12T02:09:08;100871.16;;;13.86;46.03
54236;BME280;40151;43.606;1.472;2023-02-12T02:11:33;100870.28;;;13.87;46.14
54236;BME280;40151;43.606;1.472;2023-02-12T02:14:17;100869.41;;;13.85;46.12
54236;BME280;40151;43.606;1.472;2023-02-12T02:17:34;100866.78;;;13.85;46.16
54236;BME280;40151;43.606;1.472;2023-02-12T02:26:20;100865.09;;;13.81;46.22
54236;BME280;40151;43.606;1.472;2023-02-12T02:28:58;100863.31;;;13.83;46.12
54236;BME280;40151;43.606;1.472;2023-02-12T02:31:46;100854.59;;;13.81;46.03
54236;BME280;40151;43.606;1.472;2023-02-12T02:34:56;100855.47;;;13.80;45.95
54236;BME280;40151;43.606;1.472;2023-02-12T02:37:27;100855.50;;;13.77;46.31
54236;BME280;40151;43.606;1.472;2023-02-12T02:40:08;100848.47;;;13.80;46.19
54236;BME280;40151;43.606;1.472;2023-02-12T02:42:43;100845.00;;;13.78;46.01
54236;BME280;40151;43.606;1.472;2023-02-12T02:45:21;100843.22;;;13.79;46.07
54236;BME280;40151;43.606;1.472;2023-02-12T02:50:23;100841.47;;;13.78;45.88
54236;BME280;40151;43.606;1.472;2023-02-12T02:53:01;100839.75;;;13.78;46.13
54236;BME280;40151;43.606;1.472;2023-02-12T02:55:36;100833.63;;;13.78;46.11
54236;BME280;40151;43.606;1.472;2023-02-12T02:58:47;100839.75;;;13.80;46.12
54236;BME280;40151;43.606;1.472;2023-02-12T03:01:35;100832.75;;;13.77;46.08
54236;BME280;40151;43.606;1.472;2023-02-12T03:04:09;100838.00;;;13.76;45.97
54236;BME280;40151;43.606;1.472;2023-02-12T03:06:44;100831.88;;;13.77;46.01
54236;BME280;40151;43.606;1.472;2023-02-12T03:09:37;100837.13;;;13.74;46.03
54236;BME280;40151;43.606;1.472;2023-02-12T03:12:13;100831.88;;;13.74;45.90
54236;BME280;40151;43.606;1.472;2023-02-12T03:14:46;100833.66;;;13.75;45.94
54236;BME280;40151;43.606;1.472;2023-02-12T03:17:23;100833.66;;;13.72;46.00
54236;BME280;40151;43.606;1.472;2023-02-12T03:19:59;100828.47;;;13.68;45.87
54236;BME280;40151;43.606;1.472;2023-02-12T03:22:35;100844.16;;;13.72;45.96
54236;BME280;40151;43.606;1.472;2023-02-12T03:25:12;100833.66;;;13.72;45.69
54236;BME280;40151;43.606;1.472;2023-02-12T03:27:46;100824.06;;;13.67;45.93
54236;BME280;40151;43.606;1.472;2023-02-12T03:30:13;100828.47;;;13.65;45.89
54236;BME280;40151;43.606;1.472;2023-02-12T03:35:34;100836.34;;;13.64;45.77
54236;BME280;40151;43.606;1.472;2023-02-12T03:40:42;100834.59;;;13.64;45.98
54236;BME280;40151;43.606;1.472;2023-02-12T03:43:31;100833.75;;;13.62;45.91
54236;BME280;40151;43.606;1.472;2023-02-12T03:46:15;100825.84;;;13.64;45.87
54236;BME280;40151;43.606;1.472;2023-02-12T03:53:46;100821.50;;;13.64;45.92
54236;BME280;40151;43.606;1.472;2023-02-12T03:56:18;100823.22;;;13.64;45.69
54236;BME280;40151;43.606;1.472;2023-02-12T03:58:44;100818.88;;;13.64;45.94
54236;BME280;40151;43.606;1.472;2023-02-12T04:01:11;100819.75;;;13.63;46.09
54236;BME280;40151;43.606;1.472;2023-02-12T04:03:38;100819.75;;;13.63;46.10
54236;BME280;40151;43.606;1.472;2023-02-12T04:06:03;100817.16;;;13.59;46.09
54236;BME280;40151;43.606;1.472;2023-02-12T04:08:30;100814.50;;;13.63;46.09
54236;BME280;40151;43.606;1.472;2023-02-12T04:16:13;100820.66;;;13.59;46.07
54236;BME280;40151;43.606;1.472;2023-02-12T04:18:43;100818.03;;;13.59;46.23
54236;BME280;40151;43.606;1.472;2023-02-12T04:32:17;100829.41;;;13.60;46.03
54236;BME280;40151;43.606;1.472;2023-02-12T04:37:51;100828.53;;;13.59;46.00
54236;BME280;40151;43.606;1.472;2023-02-12T04:40:19;100830.31;;;13.57;46.17
54236;BME280;40151;43.606;1.472;2023-02-12T04:42:48;100837.28;;;13.55;46.06
54236;BME280;40151;43.606;1.472;2023-02-12T04:45:22;100839.91;;;13.58;45.90
54236;BME280;40151;43.606;1.472;2023-02-12T04:47:48;100839.03;;;13.59;46.19
54236;BME280;40151;43.606;1.472;2023-02-12T04:50:13;100842.53;;;13.58;46.05
54236;BME280;40151;43.606;1.472;2023-02-12T04:52:39;100839.91;;;13.56;46.14
54236;BME280;40151;43.606;1.472;2023-02-12T04:55:05;100837.28;;;13.55;46.02
54236;BME280;40151;43.606;1.472;2023-02-12T04:57:30;100844.28;;;13.56;46.10
54236;BME280;40151;43.606;1.472;2023-02-12T04:59:55;100846.09;;;13.51;46.05
54236;BME280;40151;43.606;1.472;2023-02-12T05:02:21;100832.09;;;13.52;46.08
54236;BME280;40151;43.606;1.472;2023-02-12T05:04:48;100837.28;;;13.55;46.10
54236;BME280;40151;43.606;1.472;2023-02-12T05:07:14;100838.22;;;13.49;46.06
54236;BME280;40151;43.606;1.472;2023-02-12T05:09:40;100837.34;;;13.50;46.11
54236;BME280;40151;43.606;1.472;2023-02-12T05:12:05;100836.44;;;13.53;46.05
54236;BME280;40151;43.606;1.472;2023-02-12T05:14:31;100831.22;;;13.50;45.88
54236;BME280;40151;43.606;1.472;2023-02-12T05:16:56;100839.06;;;13.50;45.91
54236;BME280;40151;43.606;1.472;2023-02-12T05:19:21;100827.72;;;13.51;45.90
54236;BME280;40151;43.606;1.472;2023-02-12T05:21:49;100836.44;;;13.51;45.98
54236;BME280;40151;43.606;1.472;2023-02-12T05:24:15;100835.59;;;13.51;45.77
54236;BME280;40151;43.606;1.472;2023-02-12T05:26:40;100840.84;;;13.48;46.01
54236;BME280;40151;43.606;1.472;2023-02-12T05:29:06;100846.09;;;13.51;45.96
54236;BME280;40151;43.606;1.472;2023-02-12T05:31:31;100849.56;;;13.50;46.04
54236;BME280;40151;43.606;1.472;2023-02-12T05:33:57;100842.59;;;13.49;45.86
54236;BME280;40151;43.606;1.472;2023-02-12T05:36:23;100845.22;;;13.49;45.88
54236;BME280;40151;43.606;1.472;2023-02-12T05:38:49;100853.97;;;13.49;45.96
54236;BME280;40151;43.606;1.472;2023-02-12T05:41:18;100839.97;;;13.44;45.95
54236;BME280;40151;43.606;1.472;2023-02-12T05:43:43;100839.09;;;13.43;46.02
54236;BME280;40151;43.606;1.472;2023-02-12T05:46:10;100846.09;;;13.45;46.02
54236;BME280;40151;43.606;1.472;2023-02-12T05:48:36;100840.84;;;13.45;45.78
54236;BME280;40151;43.606;1.472;2023-02-12T05:51:15;100840.88;;;13.43;45.87
54236;BME280;40151;43.606;1.472;2023-02-12T05:53:41;100846.09;;;13.41;45.98
54236;BME280;40151;43.606;1.472;2023-02-12T05:58:34;100846.09;;;13.41;46.02
54236;BME280;40151;43.606;1.472;2023-02-12T06:01:00;100853.97;;;13.45;45.86
54236;BME280;40151;43.606;1.472;2023-02-12T06:03:26;100857.47;;;13.42;46.00
54236;BME280;40151;43.606;1.472;2023-02-12T06:05:51;100860.94;;;13.42;45.96
54236;BME280;40151;43.606;1.472;2023-02-12T06:08:17;100856.59;;;13.41;45.96
54236;BME280;40151;43.606;1.472;2023-02-12T06:10:42;100857.50;;;13.39;45.95
54236;BME280;40151;43.606;1.472;2023-02-12T06:13:07;100858.38;;;13.39;45.97
54236;BME280;40151;43.606;1.472;2023-02-12T06:15:35;100862.72;;;13.39;46.00
54236;BME280;40151;43.606;1.472;2023-02-12T06:18:00;100853.13;;;13.39;45.95
54236;BME280;40151;43.606;1.472;2023-02-12T06:20:26;100852.25;;;13.39;46.03
54236;BME280;40151;43.606;1.472;2023-02-12T06:22:51;100849.63;;;13.39;45.98
54236;BME280;40151;43.606;1.472;2023-02-12T06:25:17;100847.03;;;13.36;46.01
54236;BME280;40151;43.606;1.472;2023-02-12T06:27:42;100858.41;;;13.33;45.92
54236;BME280;40151;43.606;1.472;2023-02-12T06:30:08;100853.97;;;13.38;46.07
54236;BME280;40151;43.606;1.472;2023-02-12T06:32:33;100856.63;;;13.35;46.12
54236;BME280;40151;43.606;1.472;2023-02-12T06:34:59;100861.00;;;13.36;46.06
54236;BME280;40151;43.606;1.472;2023-02-12T06:37:24;100859.25;;;13.35;46.00
54236;BME280;40151;43.606;1.472;2023-02-12T06:39:50;100853.13;;;13.36;45.91
54236;BME280;40151;43.606;1.472;2023-02-12T06:42:15;100855.75;;;13.35;45.98
54236;BME280;40151;43.606;1.472;2023-02-12T06:44:41;100856.63;;;13.35;45.95
54236;BME280;40151;43.606;1.472;2023-02-12T06:47:06;100855.75;;;13.35;46.03
54236;BME280;40151;43.606;1.472;2023-02-12T06:49:31;100864.50;;;13.34;46.08
54236;BME280;40151;43.606;1.472;2023-02-12T06:51:57;100865.38;;;13.36;46.05
54236;BME280;40151;43.606;1.472;2023-02-12T06:54:22;100851.41;;;13.35;45.98
54236;BME280;40151;43.606;1.472;2023-02-12T06:56:48;100858.41;;;13.33;46.04
54236;BME280;40151;43.606;1.472;2023-02-12T06:59:15;100860.16;;;13.34;46.13
54236;BME280;40151;43.606;1.472;2023-02-12T07:01:41;100867.13;;;13.34;45.92
54236;BME280;40151;43.606;1.472;2023-02-12T07:04:06;100867.13;;;13.32;46.01
54236;BME280;40151;43.606;1.472;2023-02-12T07:06:34;100866.28;;;13.32;45.80
54236;BME280;40151;43.606;1.472;2023-02-12T07:08:59;100864.53;;;13.31;46.17
54236;BME280;40151;43.606;1.472;2023-02-12T07:11:31;100873.25;;;13.33;46.04
54236;BME280;40151;43.606;1.472;2023-02-12T07:13:56;100868.91;;;13.33;45.91
54236;BME280;40151;43.606;1.472;2023-02-12T07:16:22;100876.78;;;13.30;45.96
54236;BME280;40151;43.606;1.472;2023-02-12T07:18:48;100881.13;;;13.31;46.09
54236;BME280;40151;43.606;1.472;2023-02-12T07:21:15;100880.25;;;13.34;46.02
54236;BME280;40151;43.606;1.472;2023-02-12T07:23:45;100888.13;;;13.29;45.95
54236;BME280;40151;43.606;1.472;2023-02-12T07:26:12;100888.13;;;13.29;46.04
54236;BME280;40151;43.606;1.472;2023-02-12T07:28:37;100894.28;;;13.29;45.91
54236;BME280;40151;43.606;1.472;2023-02-12T07:33:33;100893.38;;;13.29;45.99
54236;BME280;40151;43.606;1.472;2023-02-12T07:36:04;100904.75;;;13.28;46.12
54236;BME280;40151;43.606;1.472;2023-02-12T07:38:29;100902.13;;;13.28;45.99
54236;BME280;40151;43.606;1.472;2023-02-12T07:41:05;100910.88;;;13.27;46.04
54236;BME280;40151;43.606;1.472;2023-02-12T07:43:30;100903.88;;;13.26;46.01
54236;BME280;40151;43.606;1.472;2023-02-12T07:46:05;100891.66;;;13.29;45.97
54236;BME280;40151;43.606;1.472;2023-02-12T07:48:30;100889.03;;;13.28;45.93
54236;BME280;40151;43.606;1.472;2023-02-12T07:50:55;100890.75;;;13.26;46.07
54236;BME280;40151;43.606;1.472;2023-02-12T07:53:21;100889.91;;;13.27;46.04
54236;BME280;40151;43.606;1.472;2023-02-12T07:55:46;100888.16;;;13.26;46.06
54236;BME280;40151;43.606;1.472;2023-02-12T07:58:11;100888.13;;;13.29;45.95
54236;BME280;40151;43.606;1.472;2023-02-12T08:00:37;100886.41;;;13.28;46.05
54236;BME280;40151;43.606;1.472;2023-02-12T08:03:02;100889.91;;;13.27;46.03
54236;BME280;40151;43.606;1.472;2023-02-12T08:05:28;100905.66;;;13.25;45.99
54236;BME280;40151;43.606;1.472;2023-02-12T08:07:53;100903.91;;;13.24;46.04
54236;BME280;40151;43.606;1.472;2023-02-12T08:10:19;100909.16;;;13.24;46.00
54236;BME280;40151;43.606;1.472;2023-02-12T08:12:46;100912.63;;;13.25;46.14
54236;BME280;40151;43.606;1.472;2023-02-12T08:15:11;100907.38;;;13.25;46.02
54236;BME280;40151;43.606;1.472;2023-02-12T08:17:37;100909.13;;;13.26;45.96
54236;BME280;40151;43.606;1.472;2023-02-12T08:20:02;100914.34;;;13.26;46.05
54236;BME280;40151;43.606;1.472;2023-02-12T08:22:28;100914.34;;;13.26;46.05
54236;BME280;40151;43.606;1.472;2023-02-12T08:24:53;100917.88;;;13.25;46.08
54236;BME280;40151;43.606;1.472;2023-02-12T08:27:18;100924.84;;;13.26;46.07
54236;BME280;40151;43.606;1.472;2023-02-12T08:29:44;100911.78;;;13.24;46.01
54236;BME280;40151;43.606;1.472;2023-02-12T08:32:09;100927.47;;;13.26;46.04
54236;BME280;40151;43.606;1.472;2023-02-12T08:34:38;100928.34;;;13.25;46.01
54236;BME280;40151;43.606;1.472;2023-02-12T08:37:04;100928.34;;;13.25;46.02
54236;BME280;40151;43.606;1.472;2023-02-12T08:39:30;100938.84;;;13.23;46.20
54236;BME280;40151;43.606;1.472;2023-02-12T08:41:59;100933.59;;;13.25;46.12
54236;BME280;40151;43.606;1.472;2023-02-12T08:44:26;100925.72;;;13.25;46.08
54236;BME280;40151;43.606;1.472;2023-02-12T08:46:52;100936.22;;;13.28;46.13
54236;BME280;40151;43.606;1.472;2023-02-12T08:49:22;100926.63;;;13.24;46.03
54236;BME280;40151;43.606;1.472;2023-02-12T08:51:50;100927.50;;;13.21;46.12
54236;BME280;40151;43.606;1.472;2023-02-12T08:54:19;100928.38;;;13.22;46.02
54236;BME280;40151;43.606;1.472;2023-02-12T08:56:45;100926.63;;;13.22;46.18
54236;BME280;40151;43.606;1.472;2023-02-12T08:59:11;100928.34;;;13.25;46.16
54236;BME280;40151;43.606;1.472;2023-02-12T09:01:39;100929.25;;;13.24;46.14
54236;BME280;40151;43.606;1.472;2023-02-12T09:04:16;100933.59;;;13.25;46.20
54236;BME280;40151;43.606;1.472;2023-02-12T09:06:42;100929.25;;;13.24;46.24
54236;BME280;40151;43.606;1.472;2023-02-12T09:09:08;100942.34;;;13.27;46.13
54236;BME280;40151;43.606;1.472;2023-02-12T09:11:34;100937.09;;;13.27;46.17
54236;BME280;40151;43.606;1.472;2023-02-12T09:14:02;100938.84;;;13.25;46.27
54236;BME280;40151;43.606;1.472;2023-02-12T09:16:29;100931.84;;;13.27;46.19
54236;BME280;40151;43.606;1.472;2023-02-12T09:18:57;100937.09;;;13.25;46.17
54236;BME280;40151;43.606;1.472;2023-02-12T09:21:22;100930.97;;;13.28;46.20
54236;BME280;40151;43.606;1.472;2023-02-12T09:23:48;100932.72;;;13.27;46.20
54236;BME280;40151;43.606;1.472;2023-02-12T09:26:17;100936.22;;;13.28;46.27
54236;BME280;40151;43.606;1.472;2023-02-12T09:28:45;100935.34;;;13.29;46.33
54236;BME280;40151;43.606;1.472;2023-02-12T09:31:16;100934.44;;;13.30;46.29
54236;BME280;40151;43.606;1.472;2023-02-12T09:33:42;100930.97;;;13.29;46.27
54236;BME280;40151;43.606;1.472;2023-02-12T09:36:10;100918.72;;;13.30;46.26
54236;BME280;40151;43.606;1.472;2023-02-12T09:38:37;100925.69;;;13.31;46.10
54236;BME280;40151;43.606;1.472;2023-02-12T09:43:52;100919.56;;;13.32;46.41
54236;BME280;40151;43.606;1.472;2023-02-12T09:46:27;100925.72;;;13.29;46.48
54236;BME280;40151;43.606;1.472;2023-02-12T09:49:02;100926.59;;;13.30;46.25
54236;BME280;40151;43.606;1.472;2023-02-12T09:51:32;100917.84;;;13.31;46.33
54236;BME280;40151;43.606;1.472;2023-02-12T09:54:12;100918.72;;;13.30;46.49
54236;BME280;40151;43.606;1.472;2023-02-12T09:56:41;100921.34;;;13.32;46.44
54236;BME280;40151;43.606;1.472;2023-02-12T09:59:07;100921.34;;;13.33;46.46
54236;BME280;40151;43.606;1.472;2023-02-12T10:01:34;100921.34;;;13.32;46.29
54236;BME280;40151;43.606;1.472;2023-02-12T10:04:00;100923.06;;;13.31;46.48
54236;BME280;40151;43.606;1.472;2023-02-12T10:06:29;100913.47;;;13.33;46.37
54236;BME280;40151;43.606;1.472;2023-02-12T10:09:18;100914.31;;;13.35;46.50
54236;BME280;40151;43.606;1.472;2023-02-12T10:11:59;100914.31;;;13.35;46.49
54236;BME280;40151;43.606;1.472;2023-02-12T10:17:26;100918.69;;;13.35;46.62
54236;BME280;40151;43.606;1.472;2023-02-12T10:20:10;100916.94;;;13.35;46.57
54236;BME280;40151;43.606;1.472;2023-02-12T10:25:53;100918.63;;;13.42;46.34
54236;BME280;40151;43.606;1.472;2023-02-12T10:31:26;100930.88;;;13.45;46.32
54236;BME280;40151;43.606;1.472;2023-02-12T10:33:54;100923.03;;;13.47;46.30
54236;BME280;40151;43.606;1.472;2023-02-12T10:36:43;100916.91;;;13.46;46.45
54236;BME280;40151;43.606;1.472;2023-02-12T10:44:11;100909.03;;;13.48;46.29
54236;BME280;40151;43.606;1.472;2023-02-12T10:46:37;100905.53;;;13.50;46.26
54236;BME280;40151;43.606;1.472;2023-02-12T10:49:03;100905.53;;;13.49;46.50
54236;BME280;40151;43.606;1.472;2023-02-12T10:57:09;100895.03;;;13.53;46.39
54236;BME280;40151;43.606;1.472;2023-02-12T10:59:36;100901.13;;;13.55;46.02
54236;BME280;40151;43.606;1.472;2023-02-12T11:02:02;100899.34;;;13.56;46.10
54236;BME280;40151;43.606;1.472;2023-02-12T11:04:31;100889.75;;;13.58;46.23
54236;BME280;40151;43.606;1.472;2023-02-12T11:07:03;100891.47;;;13.59;46.25
54236;BME280;40151;43.606;1.472;2023-02-12T11:09:35;100889.75;;;13.58;46.26
54236;BME280;40151;43.606;1.472;2023-02-12T11:12:01;100891.47;;;13.59;46.16
54236;BME280;40151;43.606;1.472;2023-02-12T11:14:28;100884.44;;;13.61;46.19
54236;BME280;40151;43.606;1.472;2023-02-12T11:16:58;100886.22;;;13.62;46.20
54236;BME280;40151;43.606;1.472;2023-02-12T11:19:30;100886.22;;;13.62;46.11
54236;BME280;40151;43.606;1.472;2023-02-12T11:22:25;100885.34;;;13.62;46.22
54236;BME280;40151;43.606;1.472;2023-02-12T11:24:59;100881.81;;;13.63;46.26
54236;BME280;40151;43.606;1.472;2023-02-12T11:27:25;100882.72;;;13.63;46.32
54236;BME280;40151;43.606;1.472;2023-02-12T11:30:17;100880.94;;;13.65;46.25
54236;BME280;40151;43.606;1.472;2023-02-12T11:32:43;100870.44;;;13.65;45.99
54236;BME280;40151;43.606;1.472;2023-02-12T11:35:17;100868.66;;;13.67;46.14
54236;BME280;40151;43.606;1.472;2023-02-12T11:37:49;100874.81;;;13.66;46.31
54236;BME280;40151;43.606;1.472;2023-02-12T11:40:21;100868.66;;;13.67;46.32
54236;BME280;40151;43.606;1.472;2023-02-12T11:42:56;100856.44;;;13.66;46.33
54236;BME280;40151;43.606;1.472;2023-02-12T11:45:31;100861.69;;;13.69;46.37
54236;BME280;40151;43.606;1.472;2023-02-12T11:47:58;100854.66;;;13.70;46.13
54236;BME280;40151;43.606;1.472;2023-02-12T11:50:28;100859.91;;;13.72;46.13
54236;BME280;40151;43.606;1.472;2023-02-12T11:53:06;100853.75;;;13.73;46.29
54236;BME280;40151;43.606;1.472;2023-02-12T11:55:36;100849.41;;;13.75;46.09
54236;BME280;40151;43.606;1.472;2023-02-12T12:03:46;100845.88;;;13.76;46.12
54236;BME280;40151;43.606;1.472;2023-02-12T12:16:42;100824.00;;;13.78;46.25
54236;BME280;40151;43.606;1.472;2023-02-12T12:19:39;100818.75;;;13.80;46.11
54236;BME280;40151;43.606;1.472;2023-02-12T12:25:24;100816.09;;;13.81;46.23
54236;BME280;40151;43.606;1.472;2023-02-12T12:27:55;100814.34;;;13.82;46.15
54236;BME280;40151;43.606;1.472;2023-02-12T12:33:09;100804.69;;;13.82;46.36
54236;BME280;40151;43.606;1.472;2023-02-12T12:35:46;100802.06;;;13.84;46.24
54236;BME280;40151;43.606;1.472;2023-02-12T12:49:26;100799.41;;;13.89;46.18
54236;BME280;40151;43.606;1.472;2023-02-12T12:57:35;100799.38;;;13.90;46.34
54236;BME280;40151;43.606;1.472;2023-02-12T13:00:07;100798.50;;;13.91;46.37
54236;BME280;40151;43.606;1.472;2023-02-12T13:03:10;100794.13;;;13.93;46.18
54236;BME280;40151;43.606;1.472;2023-02-12T13:05:55;100786.25;;;13.93;46.03
54236;BME280;40151;43.606;1.472;2023-02-12T13:20:32;100780.94;;;13.96;46.20
54236;BME280;40151;43.606;1.472;2023-02-12T13:23:15;100780.09;;;13.98;46.37
54236;BME280;40151;43.606;1.472;2023-02-12T13:28:39;100777.47;;;13.98;46.47
54236;BME280;40151;43.606;1.472;2023-02-12T13:31:13;100779.16;;;14.00;46.50
54236;BME280;40151;43.606;1.472;2023-02-12T13:33:44;100769.53;;;14.01;46.31
54236;BME280;40151;43.606;1.472;2023-02-12T13:36:13;100765.19;;;14.00;46.43
54236;BME280;40151;43.606;1.472;2023-02-12T13:39:01;100765.13;;;14.04;46.29
54236;BME280;40151;43.606;1.472;2023-02-12T13:41:31;100755.53;;;14.02;46.24
54236;BME280;40151;43.606;1.472;2023-02-12T13:44:21;100752.91;;;14.02;46.49
54236;BME280;40151;43.606;1.472;2023-02-12T13:49:43;100755.53;;;14.03;46.29
54236;BME280;40151;43.606;1.472;2023-02-12T13:52:38;100753.72;;;14.07;46.24
54236;BME280;40151;43.606;1.472;2023-02-12T13:55:24;100753.75;;;14.05;46.14
54236;BME280;40151;43.606;1.472;2023-02-12T14:03:29;100755.44;;;14.09;46.38
54236;BME280;40151;43.606;1.472;2023-02-12T14:06:14;100745.84;;;14.10;46.38
54236;BME280;40151;43.606;1.472;2023-02-12T14:08:43;100744.03;;;14.12;46.30
54236;BME280;40151;43.606;1.472;2023-02-12T14:11:12;100737.91;;;14.12;46.48
54236;BME280;40151;43.606;1.472;2023-02-12T14:13:57;100742.31;;;14.11;46.38
54236;BME280;40151;43.606;1.472;2023-02-12T14:21:56;100741.41;;;14.14;46.34
54236;BME280;40151;43.606;1.472;2023-02-12T14:27:04;100743.16;;;14.13;46.23
54236;BME280;40151;43.606;1.472;2023-02-12T14:29:31;100737.88;;;14.15;46.52
54236;BME280;40151;43.606;1.472;2023-02-12T14:31:56;100737.88;;;14.16;46.29
54236;BME280;40151;43.606;1.472;2023-02-12T14:36:49;100734.38;;;14.16;46.29
54236;BME280;40151;43.606;1.472;2023-02-12T14:39:33;100743.97;;;14.18;46.45
54236;BME280;40151;43.606;1.472;2023-02-12T14:46:57;100733.47;;;14.18;46.50
54236;BME280;40151;43.606;1.472;2023-02-12T14:49:29;100735.19;;;14.19;46.42
54236;BME280;40151;43.606;1.472;2023-02-12T14:51:57;100726.44;;;14.20;46.45
54236;BME280;40151;43.606;1.472;2023-02-12T14:54:33;100722.94;;;14.21;46.57
54236;BME280;40151;43.606;1.472;2023-02-12T14:57:06;100724.69;;;14.19;46.48
54236;BME280;40151;43.606;1.472;2023-02-12T14:59:38;100724.69;;;14.19;46.53
54236;BME280;40151;43.606;1.472;2023-02-12T15:02:06;100722.94;;;14.21;46.55
54236;BME280;40151;43.606;1.472;2023-02-12T15:04:36;100727.25;;;14.24;46.15
54236;BME280;40151;43.606;1.472;2023-02-12T15:07:06;100725.56;;;14.21;46.31
54236;BME280;40151;43.606;1.472;2023-02-12T15:09:57;100722.00;;;14.24;46.48
54236;BME280;40151;43.606;1.472;2023-02-12T15:12:34;100728.16;;;14.25;46.65
54236;BME280;40151;43.606;1.472;2023-02-12T15:18:00;100721.09;;;14.27;46.33
54236;BME280;40151;43.606;1.472;2023-02-12T15:23:43;100728.13;;;14.28;46.55
54236;BME280;40151;43.606;1.472;2023-02-12T15:26:21;100731.59;;;14.27;46.64
54236;BME280;40151;43.606;1.472;2023-02-12T15:28:50;100721.09;;;14.30;46.56
54236;BME280;40151;43.606;1.472;2023-02-12T15:31:24;100719.34;;;14.29;46.56
54236;BME280;40151;43.606;1.472;2023-02-12T15:33:51;100726.34;;;14.30;46.34
54236;BME280;40151;43.606;1.472;2023-02-12T15:36:22;100719.28;;;14.32;46.50
54236;BME280;40151;43.606;1.472;2023-02-12T15:39:07;100725.44;;;14.31;46.50